<?xml version="1.0" encoding="UTF-8" standalone="no" ?>
<gpx xmlns="http://www.topografix.com/GPX/1/1" xmlns:xsi="http://www.w3.org/2001/XMLSchema-instance" xsi:schemaLocation="http://www.topografix.com/GPX/1/1 http://www.topografix.com/GPX/1/1/gpx.xsd" version="1.1" creator="VisuGPX - https://www.visugpx.com">
  <metadata>
    <name>GR10 ~ 40 étape - Siguer / Cabane de Clarans</name>
  </metadata>
  <wpt lat="42.7635" lon="1.56616">
    <ele>753.1</ele>
    <name><![CDATA[Siguer]]></name>
    <desc><![CDATA[Nuitée au Point d'accueil des randonneur

Alt: 753.1m]]></desc>
    <type><![CDATA[hotel]]></type>
  </wpt>
  <wpt lat="42.76478" lon="1.58956">
    <ele>1388.3</ele>
    <name><![CDATA[Col de Gamel]]></name>
    <desc><![CDATA[Alt: 1388.3m]]></desc>
    <type><![CDATA[col]]></type>
  </wpt>
  <wpt lat="42.75499" lon="1.59975">
    <ele>1680.7</ele>
    <name><![CDATA[Col de la Lène]]></name>
    <desc><![CDATA[Alt: 1680.7m]]></desc>
    <type><![CDATA[col]]></type>
  </wpt>
  <wpt lat="42.74936" lon="1.61325">
    <ele>1901</ele>
    <name><![CDATA[Pla de Montcamp]]></name>
    <desc><![CDATA[Alt: 1901m]]></desc>
    <type><![CDATA[sommet]]></type>
  </wpt>
  <wpt lat="42.73223" lon="1.62786">
    <ele>1807.1</ele>
    <name><![CDATA[Cabane de Courtal Marti]]></name>
    <desc><![CDATA[Capacité : 3

Alt: 1807.1m]]></desc>
    <type><![CDATA[cabane]]></type>
  </wpt>
  <wpt lat="42.71942" lon="1.67026">
    <ele>1071.2</ele>
    <name><![CDATA[Cabane de Clarans (assos GR10)]]></name>
    <desc><![CDATA[Nuit dans la cabane
Alt: 1071.2m]]></desc>
    <type><![CDATA[cabane]]></type>
  </wpt>
  <trk>
    <name><![CDATA[GR10 ~ 40 étape - Siguer / Cabane de Clarans_1]]></name>
    <desc><![CDATA[]]></desc>
    <trkseg>
      <trkpt lat="42.76348" lon="1.56619">
        <ele>753.4</ele>
      </trkpt>
      <trkpt lat="42.76349" lon="1.56619">
        <ele>753.4</ele>
      </trkpt>
      <trkpt lat="42.7635" lon="1.5664">
        <ele>755.7</ele>
      </trkpt>
      <trkpt lat="42.76354" lon="1.56655">
        <ele>757.5</ele>
      </trkpt>
      <trkpt lat="42.76376" lon="1.56676">
        <ele>759.1</ele>
      </trkpt>
      <trkpt lat="42.76378" lon="1.56671">
        <ele>758.7</ele>
      </trkpt>
      <trkpt lat="42.7638" lon="1.5667">
        <ele>758.6</ele>
        <extensions>
          <visugpx:TrkExtension xmlns:visugpx="https://www.visugpx.com/editgpx/">
            <visugpx:node>1</visugpx:node>
            </visugpx:TrkExtension>
        </extensions>
      </trkpt>
      <trkpt lat="42.76381" lon="1.56677">
        <ele>819</ele>
        <time>2024-08-12T07:37:17+02:00</time>
      </trkpt>
      <trkpt lat="42.76372" lon="1.56731">
        <ele>832</ele>
        <time>2024-08-12T07:38:02+02:00</time>
      </trkpt>
      <trkpt lat="42.76364" lon="1.56792">
        <ele>840</ele>
        <time>2024-08-12T07:40:51+02:00</time>
      </trkpt>
      <trkpt lat="42.76348" lon="1.56843">
        <ele>850</ele>
        <time>2024-08-12T07:41:25+02:00</time>
      </trkpt>
      <trkpt lat="42.76315" lon="1.56893">
        <ele>861</ele>
        <time>2024-08-12T07:41:57+02:00</time>
      </trkpt>
      <trkpt lat="42.76279" lon="1.56926">
        <ele>875</ele>
        <time>2024-08-12T07:43:21+02:00</time>
      </trkpt>
      <trkpt lat="42.76243" lon="1.56958">
        <ele>880</ele>
        <time>2024-08-12T07:44:33+02:00</time>
      </trkpt>
      <trkpt lat="42.7626" lon="1.57012">
        <ele>890</ele>
        <time>2024-08-12T07:46:03+02:00</time>
      </trkpt>
      <trkpt lat="42.76284" lon="1.57071">
        <ele>904</ele>
        <time>2024-08-12T07:47:15+02:00</time>
      </trkpt>
      <trkpt lat="42.76329" lon="1.57055">
        <ele>912</ele>
        <time>2024-08-12T07:49:16+02:00</time>
      </trkpt>
      <trkpt lat="42.76375" lon="1.5704">
        <ele>925</ele>
        <time>2024-08-12T07:49:39+02:00</time>
      </trkpt>
      <trkpt lat="42.76381" lon="1.57098">
        <ele>935</ele>
        <time>2024-08-12T07:51:27+02:00</time>
      </trkpt>
      <trkpt lat="42.76421" lon="1.57125">
        <ele>946</ele>
        <time>2024-08-12T07:52:10+02:00</time>
      </trkpt>
      <trkpt lat="42.76462" lon="1.57132">
        <ele>957</ele>
        <time>2024-08-12T07:53:22+02:00</time>
      </trkpt>
      <trkpt lat="42.76503" lon="1.57118">
        <ele>969</ele>
        <time>2024-08-12T07:54:44+02:00</time>
      </trkpt>
      <trkpt lat="42.7654" lon="1.57166">
        <ele>980</ele>
        <time>2024-08-12T07:57:11+02:00</time>
      </trkpt>
      <trkpt lat="42.76584" lon="1.57187">
        <ele>992</ele>
        <time>2024-08-12T07:58:15+02:00</time>
      </trkpt>
      <trkpt lat="42.76629" lon="1.57201">
        <ele>1006</ele>
        <time>2024-08-12T07:59:11+02:00</time>
      </trkpt>
      <trkpt lat="42.76659" lon="1.57245">
        <ele>1018</ele>
        <time>2024-08-12T08:00:21+02:00</time>
      </trkpt>
      <trkpt lat="42.76678" lon="1.57295">
        <ele>1032</ele>
        <time>2024-08-12T08:01:29+02:00</time>
      </trkpt>
      <trkpt lat="42.76646" lon="1.57327">
        <ele>1045</ele>
        <time>2024-08-12T08:02:23+02:00</time>
      </trkpt>
      <trkpt lat="42.76666" lon="1.57376">
        <ele>1059</ele>
        <time>2024-08-12T08:03:57+02:00</time>
      </trkpt>
      <trkpt lat="42.76686" lon="1.57429">
        <ele>1075</ele>
        <time>2024-08-12T08:04:57+02:00</time>
      </trkpt>
      <trkpt lat="42.76712" lon="1.57475">
        <ele>1091</ele>
        <time>2024-08-12T08:06:21+02:00</time>
      </trkpt>
      <trkpt lat="42.76694" lon="1.57525">
        <ele>1108</ele>
        <time>2024-08-12T08:08:24+02:00</time>
      </trkpt>
      <trkpt lat="42.7666" lon="1.57557">
        <ele>1122</ele>
        <time>2024-08-12T08:09:35+02:00</time>
      </trkpt>
      <trkpt lat="42.76625" lon="1.5759">
        <ele>1139</ele>
        <time>2024-08-12T08:11:54+02:00</time>
      </trkpt>
      <trkpt lat="42.76626" lon="1.57648">
        <ele>1154</ele>
        <time>2024-08-12T08:13:59+02:00</time>
      </trkpt>
      <trkpt lat="42.76621" lon="1.57707">
        <ele>1170</ele>
        <time>2024-08-12T08:15:33+02:00</time>
      </trkpt>
      <trkpt lat="42.7658" lon="1.57718">
        <ele>1186</ele>
        <time>2024-08-12T08:16:39+02:00</time>
      </trkpt>
      <trkpt lat="42.76551" lon="1.5777">
        <ele>1199</ele>
        <time>2024-08-12T08:20:34+02:00</time>
      </trkpt>
      <trkpt lat="42.76556" lon="1.57833">
        <ele>1214</ele>
        <time>2024-08-12T08:21:22+02:00</time>
      </trkpt>
      <trkpt lat="42.76556" lon="1.57895">
        <ele>1227</ele>
        <time>2024-08-12T08:22:43+02:00</time>
      </trkpt>
      <trkpt lat="42.76549" lon="1.57951">
        <ele>1240</ele>
        <time>2024-08-12T08:24:01+02:00</time>
      </trkpt>
      <trkpt lat="42.76529" lon="1.58002">
        <ele>1256</ele>
        <time>2024-08-12T08:25:49+02:00</time>
      </trkpt>
      <trkpt lat="42.76534" lon="1.58058">
        <ele>1269</ele>
        <time>2024-08-12T08:27:24+02:00</time>
      </trkpt>
      <trkpt lat="42.7654" lon="1.58122">
        <ele>1282</ele>
        <time>2024-08-12T08:30:32+02:00</time>
      </trkpt>
      <trkpt lat="42.76519" lon="1.58192">
        <ele>1294</ele>
        <time>2024-08-12T08:35:02+02:00</time>
      </trkpt>
      <trkpt lat="42.76507" lon="1.58255">
        <ele>1307</ele>
        <time>2024-08-12T08:35:19+02:00</time>
      </trkpt>
      <trkpt lat="42.76495" lon="1.58331">
        <ele>1319</ele>
        <time>2024-08-12T08:35:56+02:00</time>
      </trkpt>
      <trkpt lat="42.76479" lon="1.58396">
        <ele>1328</ele>
        <time>2024-08-12T08:36:40+02:00</time>
      </trkpt>
      <trkpt lat="42.76463" lon="1.58455">
        <ele>1338</ele>
        <time>2024-08-12T08:37:55+02:00</time>
      </trkpt>
      <trkpt lat="42.7643" lon="1.58513">
        <ele>1349</ele>
        <time>2024-08-12T08:40:11+02:00</time>
      </trkpt>
      <trkpt lat="42.76394" lon="1.5856">
        <ele>1356</ele>
        <time>2024-08-12T08:41:04+02:00</time>
      </trkpt>
      <trkpt lat="42.76359" lon="1.58598">
        <ele>1362</ele>
        <time>2024-08-12T08:42:21+02:00</time>
      </trkpt>
      <trkpt lat="42.76319" lon="1.58586">
        <ele>1372</ele>
        <time>2024-08-12T08:43:54+02:00</time>
      </trkpt>
      <trkpt lat="42.76342" lon="1.58637">
        <ele>1385</ele>
        <time>2024-08-12T08:45:47+02:00</time>
      </trkpt>
      <trkpt lat="42.76376" lon="1.58666">
        <ele>1398</ele>
        <time>2024-08-12T08:46:47+02:00</time>
      </trkpt>
      <trkpt lat="42.76407" lon="1.58705">
        <ele>1408</ele>
        <time>2024-08-12T08:49:24+02:00</time>
      </trkpt>
      <trkpt lat="42.76457" lon="1.58754">
        <ele>1422</ele>
        <time>2024-08-12T08:51:13+02:00</time>
      </trkpt>
      <trkpt lat="42.76464" lon="1.58809">
        <ele>1438</ele>
        <time>2024-08-12T08:51:30+02:00</time>
      </trkpt>
      <trkpt lat="42.76477" lon="1.58861">
        <ele>1455</ele>
        <time>2024-08-12T08:52:06+02:00</time>
      </trkpt>
      <trkpt lat="42.76477" lon="1.58916">
        <ele>1471</ele>
        <time>2024-08-12T08:53:26+02:00</time>
      </trkpt>
      <trkpt lat="42.7644" lon="1.58941">
        <ele>1485</ele>
        <time>2024-08-12T09:00:25+02:00</time>
      </trkpt>
      <trkpt lat="42.76406" lon="1.58907">
        <ele>1500</ele>
        <time>2024-08-12T09:01:18+02:00</time>
      </trkpt>
      <trkpt lat="42.76387" lon="1.58958">
        <ele>1515</ele>
        <time>2024-08-12T09:04:54+02:00</time>
      </trkpt>
      <trkpt lat="42.76346" lon="1.58966">
        <ele>1528</ele>
        <time>2024-08-12T09:05:42+02:00</time>
      </trkpt>
      <trkpt lat="42.76307" lon="1.58987">
        <ele>1543</ele>
        <time>2024-08-12T09:06:36+02:00</time>
      </trkpt>
      <trkpt lat="42.76268" lon="1.59007">
        <ele>1554</ele>
        <time>2024-08-12T09:08:24+02:00</time>
      </trkpt>
      <trkpt lat="42.76227" lon="1.59022">
        <ele>1564</ele>
        <time>2024-08-12T09:09:48+02:00</time>
      </trkpt>
      <trkpt lat="42.76189" lon="1.5904">
        <ele>1579</ele>
        <time>2024-08-12T09:10:48+02:00</time>
      </trkpt>
      <trkpt lat="42.76147" lon="1.59051">
        <ele>1589</ele>
        <time>2024-08-12T09:12:30+02:00</time>
      </trkpt>
      <trkpt lat="42.7612" lon="1.59095">
        <ele>1600</ele>
        <time>2024-08-12T09:13:49+02:00</time>
      </trkpt>
      <trkpt lat="42.76078" lon="1.59113">
        <ele>1613</ele>
        <time>2024-08-12T09:15:25+02:00</time>
      </trkpt>
      <trkpt lat="42.76036" lon="1.59112">
        <ele>1627</ele>
        <time>2024-08-12T09:17:12+02:00</time>
      </trkpt>
      <trkpt lat="42.75992" lon="1.5914">
        <ele>1642</ele>
        <time>2024-08-12T09:21:24+02:00</time>
      </trkpt>
      <trkpt lat="42.75954" lon="1.59162">
        <ele>1654</ele>
        <time>2024-08-12T09:21:57+02:00</time>
      </trkpt>
      <trkpt lat="42.75913" lon="1.59181">
        <ele>1663</ele>
        <time>2024-08-12T09:23:03+02:00</time>
      </trkpt>
      <trkpt lat="42.75877" lon="1.59212">
        <ele>1671</ele>
        <time>2024-08-12T09:24:39+02:00</time>
      </trkpt>
      <trkpt lat="42.75843" lon="1.59246">
        <ele>1680</ele>
        <time>2024-08-12T09:26:02+02:00</time>
      </trkpt>
      <trkpt lat="42.75807" lon="1.5928">
        <ele>1688</ele>
        <time>2024-08-12T09:27:33+02:00</time>
      </trkpt>
      <trkpt lat="42.75777" lon="1.59325">
        <ele>1697</ele>
        <time>2024-08-12T09:28:32+02:00</time>
      </trkpt>
      <trkpt lat="42.75756" lon="1.59377">
        <ele>1702</ele>
        <time>2024-08-12T09:29:27+02:00</time>
      </trkpt>
      <trkpt lat="42.75729" lon="1.59423">
        <ele>1709</ele>
        <time>2024-08-12T09:30:21+02:00</time>
      </trkpt>
      <trkpt lat="42.75709" lon="1.59471">
        <ele>1718</ele>
        <time>2024-08-12T09:30:57+02:00</time>
      </trkpt>
      <trkpt lat="42.75677" lon="1.59508">
        <ele>1728</ele>
        <time>2024-08-12T09:31:51+02:00</time>
      </trkpt>
      <trkpt lat="42.75654" lon="1.59563">
        <ele>1737</ele>
        <time>2024-08-12T09:33:09+02:00</time>
      </trkpt>
      <trkpt lat="42.75636" lon="1.59618">
        <ele>1739</ele>
        <time>2024-08-12T09:34:09+02:00</time>
      </trkpt>
      <trkpt lat="42.756" lon="1.59678">
        <ele>1741</ele>
        <time>2024-08-12T09:36:31+02:00</time>
      </trkpt>
      <trkpt lat="42.75588" lon="1.59734">
        <ele>1742</ele>
        <time>2024-08-12T09:37:48+02:00</time>
      </trkpt>
      <trkpt lat="42.75578" lon="1.59797">
        <ele>1742</ele>
        <time>2024-08-12T09:38:45+02:00</time>
      </trkpt>
      <trkpt lat="42.75566" lon="1.5986">
        <ele>1746</ele>
        <time>2024-08-12T09:39:30+02:00</time>
      </trkpt>
      <trkpt lat="42.75534" lon="1.59901">
        <ele>1745</ele>
        <time>2024-08-12T09:40:48+02:00</time>
      </trkpt>
      <trkpt lat="42.75508" lon="1.59956">
        <ele>1747</ele>
        <time>2024-08-12T09:42:24+02:00</time>
      </trkpt>
      <trkpt lat="42.75479" lon="1.59998">
        <ele>1750</ele>
        <time>2024-08-12T09:43:39+02:00</time>
      </trkpt>
      <trkpt lat="42.75489" lon="1.60056">
        <ele>1758</ele>
        <time>2024-08-12T09:56:40+02:00</time>
      </trkpt>
      <trkpt lat="42.75474" lon="1.60116">
        <ele>1768</ele>
        <time>2024-08-12T09:57:40+02:00</time>
      </trkpt>
      <trkpt lat="42.75464" lon="1.60176">
        <ele>1777</ele>
        <time>2024-08-12T09:58:33+02:00</time>
      </trkpt>
      <trkpt lat="42.7545" lon="1.60235">
        <ele>1785</ele>
        <time>2024-08-12T09:59:16+02:00</time>
      </trkpt>
      <trkpt lat="42.7543" lon="1.60297">
        <ele>1796</ele>
        <time>2024-08-12T10:00:34+02:00</time>
      </trkpt>
      <trkpt lat="42.7541" lon="1.60356">
        <ele>1810</ele>
        <time>2024-08-12T10:01:46+02:00</time>
      </trkpt>
      <trkpt lat="42.75398" lon="1.6041">
        <ele>1821</ele>
        <time>2024-08-12T10:02:58+02:00</time>
      </trkpt>
      <trkpt lat="42.75383" lon="1.60465">
        <ele>1836</ele>
        <time>2024-08-12T10:03:57+02:00</time>
      </trkpt>
      <trkpt lat="42.75365" lon="1.60518">
        <ele>1846</ele>
        <time>2024-08-12T10:04:46+02:00</time>
      </trkpt>
      <trkpt lat="42.75341" lon="1.6057">
        <ele>1858</ele>
        <time>2024-08-12T10:05:58+02:00</time>
      </trkpt>
      <trkpt lat="42.75312" lon="1.60618">
        <ele>1871</ele>
        <time>2024-08-12T10:07:04+02:00</time>
      </trkpt>
      <trkpt lat="42.75285" lon="1.60659">
        <ele>1877</ele>
        <time>2024-08-12T10:08:10+02:00</time>
      </trkpt>
      <trkpt lat="42.75257" lon="1.60707">
        <ele>1892</ele>
        <time>2024-08-12T10:09:34+02:00</time>
      </trkpt>
      <trkpt lat="42.75231" lon="1.60754">
        <ele>1904</ele>
        <time>2024-08-12T10:10:58+02:00</time>
      </trkpt>
      <trkpt lat="42.75213" lon="1.60805">
        <ele>1913</ele>
        <time>2024-08-12T10:11:45+02:00</time>
      </trkpt>
      <trkpt lat="42.75182" lon="1.6085">
        <ele>1923</ele>
        <time>2024-08-12T10:12:46+02:00</time>
      </trkpt>
      <trkpt lat="42.75157" lon="1.60901">
        <ele>1927</ele>
        <time>2024-08-12T10:13:52+02:00</time>
      </trkpt>
      <trkpt lat="42.75129" lon="1.60944">
        <ele>1933</ele>
        <time>2024-08-12T10:14:57+02:00</time>
      </trkpt>
      <trkpt lat="42.7511" lon="1.60996">
        <ele>1941</ele>
        <time>2024-08-12T10:16:40+02:00</time>
      </trkpt>
      <trkpt lat="42.75093" lon="1.6105">
        <ele>1943</ele>
        <time>2024-08-12T10:17:57+02:00</time>
      </trkpt>
      <trkpt lat="42.75074" lon="1.61102">
        <ele>1945</ele>
        <time>2024-08-12T10:19:59+02:00</time>
      </trkpt>
      <trkpt lat="42.75041" lon="1.61152">
        <ele>1946</ele>
        <time>2024-08-12T10:20:41+02:00</time>
      </trkpt>
      <trkpt lat="42.75011" lon="1.61189">
        <ele>1942</ele>
        <time>2024-08-12T10:21:29+02:00</time>
      </trkpt>
      <trkpt lat="42.74979" lon="1.61242">
        <ele>1938</ele>
        <time>2024-08-12T10:22:17+02:00</time>
      </trkpt>
      <trkpt lat="42.74964" lon="1.61298">
        <ele>1934</ele>
        <time>2024-08-12T10:22:59+02:00</time>
      </trkpt>
      <trkpt lat="42.74925" lon="1.6132">
        <ele>1929</ele>
        <time>2024-08-12T10:34:38+02:00</time>
      </trkpt>
      <trkpt lat="42.74887" lon="1.613">
        <ele>1924</ele>
        <time>2024-08-12T10:35:14+02:00</time>
      </trkpt>
      <trkpt lat="42.7484" lon="1.61303">
        <ele>1915</ele>
        <time>2024-08-12T10:35:56+02:00</time>
      </trkpt>
      <trkpt lat="42.74795" lon="1.61298">
        <ele>1905</ele>
        <time>2024-08-12T10:36:32+02:00</time>
      </trkpt>
      <trkpt lat="42.7476" lon="1.61328">
        <ele>1899</ele>
        <time>2024-08-12T10:37:08+02:00</time>
      </trkpt>
      <trkpt lat="42.74724" lon="1.61356">
        <ele>1893</ele>
        <time>2024-08-12T10:37:50+02:00</time>
      </trkpt>
      <trkpt lat="42.74684" lon="1.61377">
        <ele>1885</ele>
        <time>2024-08-12T10:38:38+02:00</time>
      </trkpt>
      <trkpt lat="42.74644" lon="1.6141">
        <ele>1879</ele>
        <time>2024-08-12T10:39:32+02:00</time>
      </trkpt>
      <trkpt lat="42.74608" lon="1.61448">
        <ele>1870</ele>
        <time>2024-08-12T10:40:14+02:00</time>
      </trkpt>
      <trkpt lat="42.74565" lon="1.61475">
        <ele>1863</ele>
        <time>2024-08-12T10:40:50+02:00</time>
      </trkpt>
      <trkpt lat="42.74528" lon="1.6151">
        <ele>1861</ele>
        <time>2024-08-12T10:41:32+02:00</time>
      </trkpt>
      <trkpt lat="42.74483" lon="1.61544">
        <ele>1855</ele>
        <time>2024-08-12T10:42:09+02:00</time>
      </trkpt>
      <trkpt lat="42.74454" lon="1.61597">
        <ele>1854</ele>
        <time>2024-08-12T10:42:51+02:00</time>
      </trkpt>
      <trkpt lat="42.74413" lon="1.61618">
        <ele>1856</ele>
        <time>2024-08-12T10:43:32+02:00</time>
      </trkpt>
      <trkpt lat="42.74378" lon="1.61651">
        <ele>1858</ele>
        <time>2024-08-12T10:44:08+02:00</time>
      </trkpt>
      <trkpt lat="42.74336" lon="1.61669">
        <ele>1864</ele>
        <time>2024-08-12T10:44:56+02:00</time>
      </trkpt>
      <trkpt lat="42.74292" lon="1.61663">
        <ele>1867</ele>
        <time>2024-08-12T10:45:33+02:00</time>
      </trkpt>
      <trkpt lat="42.74249" lon="1.61661">
        <ele>1870</ele>
        <time>2024-08-12T10:46:40+02:00</time>
      </trkpt>
      <trkpt lat="42.74203" lon="1.61649">
        <ele>1875</ele>
        <time>2024-08-12T10:47:28+02:00</time>
      </trkpt>
      <trkpt lat="42.74157" lon="1.61633">
        <ele>1878</ele>
        <time>2024-08-12T10:48:05+02:00</time>
      </trkpt>
      <trkpt lat="42.74113" lon="1.61634">
        <ele>1882</ele>
        <time>2024-08-12T10:49:00+02:00</time>
      </trkpt>
      <trkpt lat="42.74071" lon="1.61622">
        <ele>1884</ele>
        <time>2024-08-12T10:49:45+02:00</time>
      </trkpt>
      <trkpt lat="42.74026" lon="1.61625">
        <ele>1887</ele>
        <time>2024-08-12T10:50:40+02:00</time>
      </trkpt>
      <trkpt lat="42.73985" lon="1.61627">
        <ele>1891</ele>
        <time>2024-08-12T10:51:27+02:00</time>
      </trkpt>
      <trkpt lat="42.73944" lon="1.61631">
        <ele>1894</ele>
        <time>2024-08-12T10:52:09+02:00</time>
      </trkpt>
      <trkpt lat="42.73902" lon="1.61643">
        <ele>1901</ele>
        <time>2024-08-12T10:52:46+02:00</time>
      </trkpt>
      <trkpt lat="42.73858" lon="1.61655">
        <ele>1904</ele>
        <time>2024-08-12T10:53:39+02:00</time>
      </trkpt>
      <trkpt lat="42.73813" lon="1.61655">
        <ele>1910</ele>
        <time>2024-08-12T10:54:11+02:00</time>
      </trkpt>
      <trkpt lat="42.7378" lon="1.6169">
        <ele>1915</ele>
        <time>2024-08-12T10:54:57+02:00</time>
      </trkpt>
      <trkpt lat="42.73742" lon="1.61711">
        <ele>1918</ele>
        <time>2024-08-12T10:55:45+02:00</time>
      </trkpt>
      <trkpt lat="42.73706" lon="1.61744">
        <ele>1924</ele>
        <time>2024-08-12T10:56:33+02:00</time>
      </trkpt>
      <trkpt lat="42.73669" lon="1.61778">
        <ele>1924</ele>
        <time>2024-08-12T10:57:23+02:00</time>
      </trkpt>
      <trkpt lat="42.73643" lon="1.61823">
        <ele>1927</ele>
        <time>2024-08-12T10:58:16+02:00</time>
      </trkpt>
      <trkpt lat="42.73615" lon="1.61881">
        <ele>1930</ele>
        <time>2024-08-12T10:58:52+02:00</time>
      </trkpt>
      <trkpt lat="42.73583" lon="1.61916">
        <ele>1931</ele>
        <time>2024-08-12T10:59:41+02:00</time>
      </trkpt>
      <trkpt lat="42.73544" lon="1.61936">
        <ele>1930</ele>
        <time>2024-08-12T11:00:22+02:00</time>
      </trkpt>
      <trkpt lat="42.73509" lon="1.61984">
        <ele>1929</ele>
        <time>2024-08-12T11:01:04+02:00</time>
      </trkpt>
      <trkpt lat="42.73473" lon="1.62028">
        <ele>1931</ele>
        <time>2024-08-12T11:01:41+02:00</time>
      </trkpt>
      <trkpt lat="42.7343" lon="1.62037">
        <ele>1929</ele>
        <time>2024-08-12T11:03:15+02:00</time>
      </trkpt>
      <trkpt lat="42.73391" lon="1.62056">
        <ele>1927</ele>
        <time>2024-08-12T11:03:57+02:00</time>
      </trkpt>
      <trkpt lat="42.73416" lon="1.62117">
        <ele>1922</ele>
        <time>2024-08-12T11:04:58+02:00</time>
      </trkpt>
      <trkpt lat="42.73446" lon="1.62166">
        <ele>1916</ele>
        <time>2024-08-12T11:06:11+02:00</time>
      </trkpt>
      <trkpt lat="42.7343" lon="1.62227">
        <ele>1913</ele>
        <time>2024-08-12T11:06:41+02:00</time>
      </trkpt>
      <trkpt lat="42.7341" lon="1.62284">
        <ele>1906</ele>
        <time>2024-08-12T11:07:26+02:00</time>
      </trkpt>
      <trkpt lat="42.73394" lon="1.62341">
        <ele>1900</ele>
        <time>2024-08-12T11:08:26+02:00</time>
      </trkpt>
      <trkpt lat="42.73388" lon="1.62399">
        <ele>1894</ele>
        <time>2024-08-12T11:09:02+02:00</time>
      </trkpt>
      <trkpt lat="42.73376" lon="1.62462">
        <ele>1885</ele>
        <time>2024-08-12T11:09:45+02:00</time>
      </trkpt>
      <trkpt lat="42.73356" lon="1.62512">
        <ele>1878</ele>
        <time>2024-08-12T11:10:20+02:00</time>
      </trkpt>
      <trkpt lat="42.73349" lon="1.62575">
        <ele>1873</ele>
        <time>2024-08-12T11:11:02+02:00</time>
      </trkpt>
      <trkpt lat="42.73314" lon="1.6261">
        <ele>1866</ele>
        <time>2024-08-12T11:11:39+02:00</time>
      </trkpt>
      <trkpt lat="42.73309" lon="1.62668">
        <ele>1861</ele>
        <time>2024-08-12T11:12:32+02:00</time>
      </trkpt>
      <trkpt lat="42.73301" lon="1.62722">
        <ele>1855</ele>
        <time>2024-08-12T11:13:08+02:00</time>
      </trkpt>
      <trkpt lat="42.73266" lon="1.62769">
        <ele>1847</ele>
        <time>2024-08-12T11:13:57+02:00</time>
      </trkpt>
      <trkpt lat="42.73222" lon="1.62788">
        <ele>1843</ele>
        <time>2024-08-12T11:14:44+02:00</time>
      </trkpt>
      <trkpt lat="42.73192" lon="1.62838">
        <ele>1835</ele>
        <time>2024-08-12T11:16:59+02:00</time>
      </trkpt>
      <trkpt lat="42.73159" lon="1.62876">
        <ele>1825</ele>
        <time>2024-08-12T11:17:35+02:00</time>
      </trkpt>
      <trkpt lat="42.73122" lon="1.62908">
        <ele>1818</ele>
        <time>2024-08-12T11:18:16+02:00</time>
      </trkpt>
      <trkpt lat="42.73077" lon="1.62935">
        <ele>1809</ele>
        <time>2024-08-12T11:18:52+02:00</time>
      </trkpt>
      <trkpt lat="42.73033" lon="1.62921">
        <ele>1797</ele>
        <time>2024-08-12T11:19:41+02:00</time>
      </trkpt>
      <trkpt lat="42.72995" lon="1.62897">
        <ele>1788</ele>
        <time>2024-08-12T11:20:28+02:00</time>
      </trkpt>
      <trkpt lat="42.72947" lon="1.62885">
        <ele>1777</ele>
        <time>2024-08-12T11:21:35+02:00</time>
      </trkpt>
      <trkpt lat="42.72912" lon="1.62857">
        <ele>1765</ele>
        <time>2024-08-12T11:22:16+02:00</time>
      </trkpt>
      <trkpt lat="42.72892" lon="1.62801">
        <ele>1753</ele>
        <time>2024-08-12T11:22:47+02:00</time>
      </trkpt>
      <trkpt lat="42.72854" lon="1.62821">
        <ele>1741</ele>
        <time>2024-08-12T11:23:52+02:00</time>
      </trkpt>
      <trkpt lat="42.72822" lon="1.62778">
        <ele>1729</ele>
        <time>2024-08-12T11:24:46+02:00</time>
      </trkpt>
      <trkpt lat="42.72807" lon="1.62714">
        <ele>1715</ele>
        <time>2024-08-12T11:25:47+02:00</time>
      </trkpt>
      <trkpt lat="42.728" lon="1.62659">
        <ele>1700</ele>
        <time>2024-08-12T11:26:46+02:00</time>
      </trkpt>
      <trkpt lat="42.72765" lon="1.62697">
        <ele>1686</ele>
        <time>2024-08-12T11:27:22+02:00</time>
      </trkpt>
      <trkpt lat="42.72732" lon="1.62734">
        <ele>1677</ele>
        <time>2024-08-12T11:29:46+02:00</time>
      </trkpt>
      <trkpt lat="42.72718" lon="1.6268">
        <ele>1666</ele>
        <time>2024-08-12T11:31:10+02:00</time>
      </trkpt>
      <trkpt lat="42.72729" lon="1.62627">
        <ele>1655</ele>
        <time>2024-08-12T11:31:58+02:00</time>
      </trkpt>
      <trkpt lat="42.72699" lon="1.62667">
        <ele>1648</ele>
        <time>2024-08-12T11:33:05+02:00</time>
      </trkpt>
      <trkpt lat="42.72668" lon="1.62708">
        <ele>1642</ele>
        <time>2024-08-12T11:34:10+02:00</time>
      </trkpt>
      <trkpt lat="42.72654" lon="1.62654">
        <ele>1637</ele>
        <time>2024-08-12T11:35:16+02:00</time>
      </trkpt>
      <trkpt lat="42.72633" lon="1.62705">
        <ele>1634</ele>
        <time>2024-08-12T12:36:47+02:00</time>
      </trkpt>
      <trkpt lat="42.72591" lon="1.62713">
        <ele>1628</ele>
        <time>2024-08-12T12:37:29+02:00</time>
      </trkpt>
      <trkpt lat="42.72548" lon="1.62705">
        <ele>1621</ele>
        <time>2024-08-12T12:38:17+02:00</time>
      </trkpt>
      <trkpt lat="42.72506" lon="1.62695">
        <ele>1612</ele>
        <time>2024-08-12T12:38:59+02:00</time>
      </trkpt>
      <trkpt lat="42.72468" lon="1.62662">
        <ele>1604</ele>
        <time>2024-08-12T12:39:53+02:00</time>
      </trkpt>
      <trkpt lat="42.72429" lon="1.62644">
        <ele>1598</ele>
        <time>2024-08-12T12:40:30+02:00</time>
      </trkpt>
      <trkpt lat="42.72386" lon="1.62645">
        <ele>1589</ele>
        <time>2024-08-12T12:41:41+02:00</time>
      </trkpt>
      <trkpt lat="42.7236" lon="1.62698">
        <ele>1579</ele>
        <time>2024-08-12T12:42:41+02:00</time>
      </trkpt>
      <trkpt lat="42.72323" lon="1.62733">
        <ele>1571</ele>
        <time>2024-08-12T12:43:59+02:00</time>
      </trkpt>
      <trkpt lat="42.7231" lon="1.62789">
        <ele>1561</ele>
        <time>2024-08-12T12:44:59+02:00</time>
      </trkpt>
      <trkpt lat="42.72299" lon="1.62842">
        <ele>1555</ele>
        <time>2024-08-12T12:45:47+02:00</time>
      </trkpt>
      <trkpt lat="42.72263" lon="1.62871">
        <ele>1549</ele>
        <time>2024-08-12T12:47:35+02:00</time>
      </trkpt>
      <trkpt lat="42.72216" lon="1.6291">
        <ele>1534</ele>
        <time>2024-08-12T12:49:12+02:00</time>
      </trkpt>
      <trkpt lat="42.72161" lon="1.62924">
        <ele>1524</ele>
        <time>2024-08-12T12:49:39+02:00</time>
      </trkpt>
      <trkpt lat="42.72144" lon="1.62981">
        <ele>1517</ele>
        <time>2024-08-12T12:50:35+02:00</time>
      </trkpt>
      <trkpt lat="42.72121" lon="1.63026">
        <ele>1508</ele>
        <time>2024-08-12T12:51:48+02:00</time>
      </trkpt>
      <trkpt lat="42.72152" lon="1.63064">
        <ele>1499</ele>
        <time>2024-08-12T12:52:35+02:00</time>
      </trkpt>
      <trkpt lat="42.72177" lon="1.63112">
        <ele>1488</ele>
        <time>2024-08-12T12:53:23+02:00</time>
      </trkpt>
      <trkpt lat="42.72198" lon="1.63161">
        <ele>1478</ele>
        <time>2024-08-12T12:54:21+02:00</time>
      </trkpt>
      <trkpt lat="42.72233" lon="1.63195">
        <ele>1472</ele>
        <time>2024-08-12T12:55:11+02:00</time>
      </trkpt>
      <trkpt lat="42.72258" lon="1.63238">
        <ele>1469</ele>
        <time>2024-08-12T12:56:05+02:00</time>
      </trkpt>
      <trkpt lat="42.72291" lon="1.63271">
        <ele>1466</ele>
        <time>2024-08-12T12:57:12+02:00</time>
      </trkpt>
      <trkpt lat="42.72334" lon="1.63273">
        <ele>1458</ele>
        <time>2024-08-12T12:58:00+02:00</time>
      </trkpt>
      <trkpt lat="42.72376" lon="1.63293">
        <ele>1452</ele>
        <time>2024-08-12T12:59:05+02:00</time>
      </trkpt>
      <trkpt lat="42.72374" lon="1.63356">
        <ele>1441</ele>
        <time>2024-08-12T13:00:24+02:00</time>
      </trkpt>
      <trkpt lat="42.72359" lon="1.6341">
        <ele>1428</ele>
        <time>2024-08-12T13:01:21+02:00</time>
      </trkpt>
      <trkpt lat="42.72346" lon="1.63464">
        <ele>1422</ele>
        <time>2024-08-12T13:02:12+02:00</time>
      </trkpt>
      <trkpt lat="42.7238" lon="1.63508">
        <ele>1413</ele>
        <time>2024-08-12T13:03:05+02:00</time>
      </trkpt>
      <trkpt lat="42.72383" lon="1.6357">
        <ele>1407</ele>
        <time>2024-08-12T13:04:00+02:00</time>
      </trkpt>
      <trkpt lat="42.72388" lon="1.63624">
        <ele>1404</ele>
        <time>2024-08-12T13:05:36+02:00</time>
      </trkpt>
      <trkpt lat="42.72362" lon="1.63674">
        <ele>1404</ele>
        <time>2024-08-12T13:06:47+02:00</time>
      </trkpt>
      <trkpt lat="42.72354" lon="1.63731">
        <ele>1413</ele>
        <time>2024-08-12T13:07:33+02:00</time>
      </trkpt>
      <trkpt lat="42.72355" lon="1.63791">
        <ele>1425</ele>
        <time>2024-08-12T13:08:09+02:00</time>
      </trkpt>
      <trkpt lat="42.72362" lon="1.63845">
        <ele>1443</ele>
        <time>2024-08-12T13:08:42+02:00</time>
      </trkpt>
      <trkpt lat="42.7237" lon="1.639">
        <ele>1462</ele>
        <time>2024-08-12T13:09:35+02:00</time>
      </trkpt>
      <trkpt lat="42.72385" lon="1.63954">
        <ele>1483</ele>
        <time>2024-08-12T13:10:44+02:00</time>
      </trkpt>
      <trkpt lat="42.72401" lon="1.64006">
        <ele>1506</ele>
        <time>2024-08-12T13:12:14+02:00</time>
      </trkpt>
      <trkpt lat="42.72415" lon="1.64062">
        <ele>1529</ele>
        <time>2024-08-12T13:14:24+02:00</time>
      </trkpt>
      <trkpt lat="42.72387" lon="1.64103">
        <ele>1551</ele>
        <time>2024-08-12T13:28:00+02:00</time>
      </trkpt>
      <trkpt lat="42.72331" lon="1.64143">
        <ele>1572</ele>
        <time>2024-08-12T13:28:17+02:00</time>
      </trkpt>
      <trkpt lat="42.72321" lon="1.64197">
        <ele>1593</ele>
        <time>2024-08-12T13:31:00+02:00</time>
      </trkpt>
      <trkpt lat="42.72305" lon="1.64252">
        <ele>1612</ele>
        <time>2024-08-12T13:32:48+02:00</time>
      </trkpt>
      <trkpt lat="42.72271" lon="1.64291">
        <ele>1631</ele>
        <time>2024-08-12T13:33:05+02:00</time>
      </trkpt>
      <trkpt lat="42.72226" lon="1.64281">
        <ele>1649</ele>
        <time>2024-08-12T13:33:29+02:00</time>
      </trkpt>
      <trkpt lat="42.7218" lon="1.64288">
        <ele>1665</ele>
        <time>2024-08-12T13:37:08+02:00</time>
      </trkpt>
      <trkpt lat="42.72135" lon="1.64297">
        <ele>1680</ele>
        <time>2024-08-12T13:38:08+02:00</time>
      </trkpt>
      <trkpt lat="42.72108" lon="1.64338">
        <ele>1695</ele>
        <time>2024-08-12T13:39:56+02:00</time>
      </trkpt>
      <trkpt lat="42.72088" lon="1.64387">
        <ele>1709</ele>
        <time>2024-08-12T13:41:34+02:00</time>
      </trkpt>
      <trkpt lat="42.72046" lon="1.64398">
        <ele>1721</ele>
        <time>2024-08-12T13:43:44+02:00</time>
      </trkpt>
      <trkpt lat="42.72021" lon="1.64445">
        <ele>1731</ele>
        <time>2024-08-12T13:45:52+02:00</time>
      </trkpt>
      <trkpt lat="42.71979" lon="1.64473">
        <ele>1737</ele>
        <time>2024-08-12T13:47:28+02:00</time>
      </trkpt>
      <trkpt lat="42.71945" lon="1.64509">
        <ele>1740</ele>
        <time>2024-08-12T13:48:30+02:00</time>
      </trkpt>
      <trkpt lat="42.71919" lon="1.64556">
        <ele>1745</ele>
        <time>2024-08-12T13:49:12+02:00</time>
      </trkpt>
      <trkpt lat="42.71882" lon="1.64585">
        <ele>1747</ele>
        <time>2024-08-12T13:51:35+02:00</time>
      </trkpt>
      <trkpt lat="42.71843" lon="1.64612">
        <ele>1747</ele>
        <time>2024-08-12T14:03:41+02:00</time>
      </trkpt>
      <trkpt lat="42.71803" lon="1.64644">
        <ele>1747</ele>
        <time>2024-08-12T14:04:28+02:00</time>
      </trkpt>
      <trkpt lat="42.71767" lon="1.64671">
        <ele>1747</ele>
        <time>2024-08-12T14:05:05+02:00</time>
      </trkpt>
      <trkpt lat="42.71722" lon="1.64684">
        <ele>1743</ele>
        <time>2024-08-12T14:05:47+02:00</time>
      </trkpt>
      <trkpt lat="42.71674" lon="1.64688">
        <ele>1736</ele>
        <time>2024-08-12T14:06:23+02:00</time>
      </trkpt>
      <trkpt lat="42.7163" lon="1.64685">
        <ele>1730</ele>
        <time>2024-08-12T14:07:04+02:00</time>
      </trkpt>
      <trkpt lat="42.71579" lon="1.64681">
        <ele>1721</ele>
        <time>2024-08-12T14:07:47+02:00</time>
      </trkpt>
      <trkpt lat="42.7153" lon="1.6467">
        <ele>1711</ele>
        <time>2024-08-12T14:08:40+02:00</time>
      </trkpt>
      <trkpt lat="42.7149" lon="1.64653">
        <ele>1700</ele>
        <time>2024-08-12T14:09:35+02:00</time>
      </trkpt>
      <trkpt lat="42.71472" lon="1.64598">
        <ele>1685</ele>
        <time>2024-08-12T14:10:39+02:00</time>
      </trkpt>
      <trkpt lat="42.71438" lon="1.64561">
        <ele>1669</ele>
        <time>2024-08-12T14:11:34+02:00</time>
      </trkpt>
      <trkpt lat="42.714" lon="1.64532">
        <ele>1655</ele>
        <time>2024-08-12T14:12:47+02:00</time>
      </trkpt>
      <trkpt lat="42.71359" lon="1.6452">
        <ele>1642</ele>
        <time>2024-08-12T14:14:04+02:00</time>
      </trkpt>
      <trkpt lat="42.71331" lon="1.6456">
        <ele>1628</ele>
        <time>2024-08-12T14:14:35+02:00</time>
      </trkpt>
      <trkpt lat="42.71309" lon="1.64621">
        <ele>1617</ele>
        <time>2024-08-12T14:15:23+02:00</time>
      </trkpt>
      <trkpt lat="42.71325" lon="1.6468">
        <ele>1606</ele>
        <time>2024-08-12T14:16:10+02:00</time>
      </trkpt>
      <trkpt lat="42.71322" lon="1.64737">
        <ele>1592</ele>
        <time>2024-08-12T14:17:28+02:00</time>
      </trkpt>
      <trkpt lat="42.71282" lon="1.64754">
        <ele>1580</ele>
        <time>2024-08-12T14:19:30+02:00</time>
      </trkpt>
      <trkpt lat="42.71251" lon="1.64792">
        <ele>1566</ele>
        <time>2024-08-12T14:21:29+02:00</time>
      </trkpt>
      <trkpt lat="42.71299" lon="1.64791">
        <ele>1550</ele>
        <time>2024-08-12T14:33:50+02:00</time>
      </trkpt>
      <trkpt lat="42.71257" lon="1.64811">
        <ele>1535</ele>
        <time>2024-08-12T14:35:12+02:00</time>
      </trkpt>
      <trkpt lat="42.71249" lon="1.64867">
        <ele>1516</ele>
        <time>2024-08-12T14:36:10+02:00</time>
      </trkpt>
      <trkpt lat="42.71226" lon="1.64917">
        <ele>1494</ele>
        <time>2024-08-12T14:37:42+02:00</time>
      </trkpt>
      <trkpt lat="42.71237" lon="1.64974">
        <ele>1472</ele>
        <time>2024-08-12T14:38:50+02:00</time>
      </trkpt>
      <trkpt lat="42.71271" lon="1.65016">
        <ele>1449</ele>
        <time>2024-08-12T14:39:41+02:00</time>
      </trkpt>
      <trkpt lat="42.71246" lon="1.65065">
        <ele>1425</ele>
        <time>2024-08-12T14:41:28+02:00</time>
      </trkpt>
      <trkpt lat="42.71146" lon="1.65371">
        <ele>1400</ele>
        <time>2024-08-12T14:45:18+02:00</time>
      </trkpt>
      <trkpt lat="42.71134" lon="1.65442">
        <ele>1376</ele>
        <time>2024-08-12T14:46:21+02:00</time>
      </trkpt>
      <trkpt lat="42.71116" lon="1.65509">
        <ele>1351</ele>
        <time>2024-08-12T14:47:28+02:00</time>
      </trkpt>
      <trkpt lat="42.71084" lon="1.65551">
        <ele>1327</ele>
        <time>2024-08-12T14:49:11+02:00</time>
      </trkpt>
      <trkpt lat="42.71093" lon="1.65625">
        <ele>1305</ele>
        <time>2024-08-12T14:50:49+02:00</time>
      </trkpt>
      <trkpt lat="42.71109" lon="1.65693">
        <ele>1284</ele>
        <time>2024-08-12T14:51:31+02:00</time>
      </trkpt>
      <trkpt lat="42.71096" lon="1.65748">
        <ele>1264</ele>
        <time>2024-08-12T14:53:34+02:00</time>
      </trkpt>
      <trkpt lat="42.71096" lon="1.65812">
        <ele>1246</ele>
        <time>2024-08-12T14:54:26+02:00</time>
      </trkpt>
      <trkpt lat="42.71056" lon="1.65839">
        <ele>1228</ele>
        <time>2024-08-12T14:55:22+02:00</time>
      </trkpt>
      <trkpt lat="42.71193" lon="1.66117">
        <ele>1211</ele>
        <time>2024-08-12T15:07:31+02:00</time>
      </trkpt>
      <trkpt lat="42.71219" lon="1.66161">
        <ele>1195</ele>
        <time>2024-08-12T15:09:07+02:00</time>
      </trkpt>
      <trkpt lat="42.71221" lon="1.66219">
        <ele>1179</ele>
        <time>2024-08-12T15:10:07+02:00</time>
      </trkpt>
      <trkpt lat="42.71259" lon="1.66243">
        <ele>1165</ele>
        <time>2024-08-12T15:11:49+02:00</time>
      </trkpt>
      <trkpt lat="42.71273" lon="1.66302">
        <ele>1152</ele>
        <time>2024-08-12T15:14:00+02:00</time>
      </trkpt>
      <trkpt lat="42.71263" lon="1.66359">
        <ele>1142</ele>
        <time>2024-08-12T15:14:50+02:00</time>
      </trkpt>
      <trkpt lat="42.71306" lon="1.66353">
        <ele>1131</ele>
        <time>2024-08-12T15:16:12+02:00</time>
      </trkpt>
      <trkpt lat="42.71282" lon="1.66404">
        <ele>1123</ele>
        <time>2024-08-12T15:17:25+02:00</time>
      </trkpt>
      <trkpt lat="42.71319" lon="1.66429">
        <ele>1119</ele>
        <time>2024-08-12T15:20:10+02:00</time>
      </trkpt>
      <trkpt lat="42.71384" lon="1.66393">
        <ele>1115</ele>
        <time>2024-08-12T15:21:14+02:00</time>
      </trkpt>
      <trkpt lat="42.71417" lon="1.66433">
        <ele>1112</ele>
        <time>2024-08-12T15:23:20+02:00</time>
      </trkpt>
      <trkpt lat="42.71441" lon="1.66494">
        <ele>1111</ele>
        <time>2024-08-12T15:25:37+02:00</time>
      </trkpt>
      <trkpt lat="42.71739" lon="1.66674">
        <ele>1111</ele>
        <time>2024-08-12T15:29:20+02:00</time>
      </trkpt>
      <trkpt lat="42.71611" lon="1.66827">
        <ele>1113</ele>
        <time>2024-08-12T15:30:29+02:00</time>
      </trkpt>
      <trkpt lat="42.71582" lon="1.66867">
        <ele>1117</ele>
        <time>2024-08-12T15:32:03+02:00</time>
      </trkpt>
      <trkpt lat="42.71599" lon="1.6692">
        <ele>1117</ele>
        <time>2024-08-12T15:33:44+02:00</time>
      </trkpt>
      <trkpt lat="42.71637" lon="1.66964">
        <ele>1119</ele>
        <time>2024-08-12T15:36:02+02:00</time>
      </trkpt>
      <trkpt lat="42.71676" lon="1.66986">
        <ele>1119</ele>
        <time>2024-08-12T15:36:20+02:00</time>
      </trkpt>
      <trkpt lat="42.7173" lon="1.66995">
        <ele>1120</ele>
        <time>2024-08-12T15:36:45+02:00</time>
      </trkpt>
      <trkpt lat="42.71773" lon="1.66984">
        <ele>1124</ele>
        <time>2024-08-12T15:37:08+02:00</time>
      </trkpt>
      <trkpt lat="42.71817" lon="1.66987">
        <ele>1128</ele>
        <time>2024-08-12T15:37:50+02:00</time>
      </trkpt>
      <trkpt lat="42.7186" lon="1.66994">
        <ele>1124</ele>
        <time>2024-08-12T15:38:32+02:00</time>
      </trkpt>
      <trkpt lat="42.71905" lon="1.67009">
        <ele>1120</ele>
        <time>2024-08-12T15:39:32+02:00</time>
      </trkpt>
      <trkpt lat="42.71949" lon="1.67012">
        <ele>1106</ele>
        <time>2024-08-12T15:40:21+02:00</time>
        <extensions>
          <visugpx:TrkExtension xmlns:visugpx="https://www.visugpx.com/editgpx/">
            <visugpx:node>1</visugpx:node>
            </visugpx:TrkExtension>
        </extensions>
      </trkpt>
    </trkseg>
  </trk>
</gpx>